RJEO(METAR)
07/27 14:00
RJEO 270500Z 32010KT 9999 FEW030 SCTXXX 28/22 Q1003 RMK A2962=
戻る
トップページへ戻る
IMOC Co,.Ltd.